(°F)
50°
50°
51°
50°
48°
45°
42°
(°F)
42°
42°
42°
41°
40°
37°
35°
NNE
NNE
NNE
NNE
NNE
N
NNE
(mph)
9-17
9-16
9-16
8-15
8-13
7-12
7-11
(in)
0
0
0
0
0
0
0
(%)
0
0
0
0
0
0
0

Sun elevation

/ 26.3°
sun-icon
UV 1
05:41
18:41
Waxing gibbous moon (137°)
19:24
24:00

METAR for 64.6°N 40.72°E (ULAA)

Time Conditions Temperature/
Dewpoint
Wind Visibility Weather Clouds Pressure Change Raw
VFR 50°F / 35.6°F 50º variable 360º to 100º 10kt >10km - Scattered Clouds 3000ft 1023 No Significant change ULAA 171000Z 05005MPS 360V100 9999 SCT030 10/02 Q1023 R08/CLRD70 NOSIG RMK QFE766/1021
VFR 50°F / 35.6°F 50º variable 350º to 080º 8kt >10km - Few Clouds 2600ft 1022 No Significant change ULAA 170930Z 05004MPS 350V080 9999 FEW026 10/02 Q1022 R08/CLRD70 NOSIG RMK QFE766/1021
VFR 50°F / 35.6°F 50º 10kt >10km - Few Clouds 2600ft 1022 No Significant change ULAA 170900Z 05005MPS 9999 FEW026 10/02 Q1022 R08/CLRD70 NOSIG RMK QFE766/1021
VFR 50°F / 37.4°F 60º variable 020º to 110º 10kt >10km - Scattered Clouds 2300ft 1022 No Significant change ULAA 170830Z 06005MPS 020V110 9999 SCT023 10/03 Q1022 R08/CLRD70 NOSIG RMK QFE766/1021
VFR 50°F / 37.4°F 60º variable 010º to 100º 8kt >10km - Scattered Clouds 2000ft 1022 No Significant change ULAA 170800Z 06004MPS 010V100 9999 SCT020 10/03 Q1022 R08/CLRD70 NOSIG RMK QFE765/1021
VFR 46.4°F / 37.4°F 60º variable 360º to 090º 8kt >10km - Scattered Clouds 2000ft 1021 No Significant change ULAA 170730Z 06004MPS 360V090 9999 SCT020 08/03 Q1021 R08/CLRD70 NOSIG RMK QFE765/1020
VFR 48.2°F / 39.2°F 40º variable 330º to 090º 8kt >10km - Scattered Clouds 2000ft 1021 No Significant change ULAA 170700Z 04004MPS 330V090 9999 SCT020 09/04 Q1021 R08/CLRD70 NOSIG RMK QFE765/1020
VFR 46.4°F / 39.2°F 50º variable 350º to 120º 8kt >10km - Scattered Clouds 1600ft 1021 No Significant change ULAA 170630Z 05004MPS 350V120 9999 SCT016 08/04 Q1021 R08/CLRD70 NOSIG RMK QFE765/1020
VFR 46.4°F / 41°F 50º variable 360º to 100º 6kt >10km - Scattered Clouds 1600ft 1021 No Significant change ULAA 170600Z 05003MPS 360V100 9999 SCT016 08/05 Q1021 R08/CLRD70 NOSIG RMK QFE764/1019
VFR 44.6°F / 41°F 60º variable 020º to 090º 8kt >10km - Scattered Clouds 1300ft 1020 No Significant change ULAA 170530Z 06004MPS 020V090 9999 SCT013 07/05 Q1020 R08/CLRD70 NOSIG RMK QFE764/1019
VFR 42.8°F / 42.8°F 50º variable 020º to 080º 6kt >10km - Scattered Clouds 1600ft 1020 No Significant change. Runway 08: Damp, 51-100% contamination with <1mm, friction coefficient 0.65. ULAA 170500Z 05003MPS 020V080 9999 SCT016 06/06 Q1020 R08/190065 NOSIG RMK QFE764/1019
MVFR 42.8°F / 41°F 50º variable 020º to 160º 4kt >10km - Broken Clouds 1100ft 1020 No Significant change. Runway 08: Damp, 51-100% contamination with <1mm, friction coefficient 0.65. ULAA 170430Z 05002MPS 020V160 9999 BKN011 06/05 Q1020 R08/190065 NOSIG RMK QFE764/1019
MVFR 41°F / 41°F variable 2kt >10km - Broken Clouds 1200ft 1020 No Significant change. Runway 08: Damp, 51-100% contamination with <1mm, friction coefficient 0.65. ULAA 170400Z VRB01MPS 9999 BKN012 05/05 Q1020 R08/190065 NOSIG RMK QFE764/1019
IFR 41°F / 41°F 10º 2kt >10km - Overcast 700ft 1020 No Significant change. Runway 08: Damp, 51-100% contamination with <1mm, friction coefficient 0.65. ULAA 170330Z 01001MPS 9999 OVC007 05/05 Q1020 R08/190065 NOSIG RMK QFE764/1019
IFR 39.2°F / 39.2°F 10º variable 340º to 040º 4kt >10km - Overcast 800ft 1020 No Significant change. Runway 08: Wet or puddles, 51-100% contamination with <1mm, friction coefficient 0.60. ULAA 170300Z 01002MPS 340V040 9999 OVC008 04/04 Q1020 R08/290060 NOSIG RMK QFE764/1018
MVFR 39.2°F / 39.2°F variable 2kt >10km - Overcast 1000ft 1019 No Significant change. Runway 08: Wet or puddles, 51-100% contamination with <1mm, friction coefficient 0.60. ULAA 170230Z VRB01MPS 9999 OVC010 04/04 Q1019 R08/290060 NOSIG RMK QFE763/1018
MVFR 39.2°F / 39.2°F variable 2kt >10km - Broken Clouds 2600ft 1019 No Significant change. Runway 08: Wet or puddles, 51-100% contamination with <1mm, friction coefficient 0.60. ULAA 170200Z VRB01MPS 9999 BKN026 04/04 Q1019 R08/290060 NOSIG RMK QFE763/1018
VFR 37.4°F / 37.4°F 40º 2kt >10km - Scattered Clouds 3300ft 1019 No Significant change. Runway 08: Wet or puddles, 51-100% contamination with <1mm, friction coefficient 0.60. ULAA 170130Z 04001MPS 9999 SCT033 03/03 Q1019 R08/290060 NOSIG RMK QFE763/1018
VFR 35.6°F / 35.6°F 20º 2kt >10km - Scattered Clouds 3300ft 1019 No Significant change. Runway 08: Wet or puddles, 51-100% contamination with <1mm, friction coefficient 0.60. ULAA 170100Z 02001MPS 9999 SCT033 02/02 Q1019 R08/290060 NOSIG RMK QFE763/1017
VFR 39.2°F / 37.4°F 20º 2kt >10km - Broken Clouds 3300ft 1018 No Significant change. Runway 08: Wet or puddles, 51-100% contamination with <1mm, friction coefficient 0.60. ULAA 170030Z 02001MPS 9999 BKN033 04/03 Q1018 R08/290060 NOSIG RMK QFE763/1017
VFR 39.2°F / 39.2°F variable 2kt >10km - Broken Clouds 3100ft 1018 No Significant change. Runway 08: Wet or puddles, 51-100% contamination with <1mm, friction coefficient 0.60. ULAA 170000Z VRB01MPS 9999 BKN031 04/04 Q1018 R08/290060 NOSIG RMK QFE763/1017
MVFR 39.2°F / 39.2°F 30º 2kt >10km - Broken Clouds 2800ft 1018 No Significant change. Runway 08: Wet or puddles, 51-100% contamination with <1mm, friction coefficient 0.60. ULAA 162330Z 03001MPS 9999 BKN028 04/04 Q1018 R08/290060 NOSIG RMK QFE763/1017
MVFR 39.2°F / 39.2°F 40º 2kt >10km - Broken Clouds 2100ft 1018 No Significant change. Runway 08: Wet or puddles, 51-100% contamination with <1mm, friction coefficient 0.60. ULAA 162300Z 04001MPS 9999 BKN021 04/04 Q1018 R08/290060 NOSIG RMK QFE762/1017
MVFR 39.2°F / 39.2°F 40º 4kt >10km - Broken Clouds 1100ft 1018 No Significant change. Runway 08: Wet or puddles, 51-100% contamination with <1mm, friction coefficient 0.60. ULAA 162230Z 04002MPS 9999 BKN011 04/04 Q1018 R08/290060 NOSIG RMK QFE762/1016

VFR

50°F / 35.6°F

[More]
Wind 50º variable 360º to 100º 10kt
Visibility >10km
Weather -
Clouds Scattered Clouds 3000ft
Pressure 1023
Change No Significant change
Raw ULAA 171000Z 05005MPS 360V100 9999 SCT030 10/02 Q1023 R08/CLRD70 NOSIG RMK QFE766/1021

VFR

50°F / 35.6°F

[More]
Wind 50º variable 350º to 080º 8kt
Visibility >10km
Weather -
Clouds Few Clouds 2600ft
Pressure 1022
Change No Significant change
Raw ULAA 170930Z 05004MPS 350V080 9999 FEW026 10/02 Q1022 R08/CLRD70 NOSIG RMK QFE766/1021

VFR

50°F / 35.6°F

[More]
Wind 50º 10kt
Visibility >10km
Weather -
Clouds Few Clouds 2600ft
Pressure 1022
Change No Significant change
Raw ULAA 170900Z 05005MPS 9999 FEW026 10/02 Q1022 R08/CLRD70 NOSIG RMK QFE766/1021

VFR

50°F / 37.4°F

[More]
Wind 60º variable 020º to 110º 10kt
Visibility >10km
Weather -
Clouds Scattered Clouds 2300ft
Pressure 1022
Change No Significant change
Raw ULAA 170830Z 06005MPS 020V110 9999 SCT023 10/03 Q1022 R08/CLRD70 NOSIG RMK QFE766/1021

VFR

50°F / 37.4°F

[More]
Wind 60º variable 010º to 100º 8kt
Visibility >10km
Weather -
Clouds Scattered Clouds 2000ft
Pressure 1022
Change No Significant change
Raw ULAA 170800Z 06004MPS 010V100 9999 SCT020 10/03 Q1022 R08/CLRD70 NOSIG RMK QFE765/1021

VFR

46.4°F / 37.4°F

[More]
Wind 60º variable 360º to 090º 8kt
Visibility >10km
Weather -
Clouds Scattered Clouds 2000ft
Pressure 1021
Change No Significant change
Raw ULAA 170730Z 06004MPS 360V090 9999 SCT020 08/03 Q1021 R08/CLRD70 NOSIG RMK QFE765/1020

VFR

48.2°F / 39.2°F

[More]
Wind 40º variable 330º to 090º 8kt
Visibility >10km
Weather -
Clouds Scattered Clouds 2000ft
Pressure 1021
Change No Significant change
Raw ULAA 170700Z 04004MPS 330V090 9999 SCT020 09/04 Q1021 R08/CLRD70 NOSIG RMK QFE765/1020

VFR

46.4°F / 39.2°F

[More]
Wind 50º variable 350º to 120º 8kt
Visibility >10km
Weather -
Clouds Scattered Clouds 1600ft
Pressure 1021
Change No Significant change
Raw ULAA 170630Z 05004MPS 350V120 9999 SCT016 08/04 Q1021 R08/CLRD70 NOSIG RMK QFE765/1020

VFR

46.4°F / 41°F

[More]
Wind 50º variable 360º to 100º 6kt
Visibility >10km
Weather -
Clouds Scattered Clouds 1600ft
Pressure 1021
Change No Significant change
Raw ULAA 170600Z 05003MPS 360V100 9999 SCT016 08/05 Q1021 R08/CLRD70 NOSIG RMK QFE764/1019

VFR

44.6°F / 41°F

[More]
Wind 60º variable 020º to 090º 8kt
Visibility >10km
Weather -
Clouds Scattered Clouds 1300ft
Pressure 1020
Change No Significant change
Raw ULAA 170530Z 06004MPS 020V090 9999 SCT013 07/05 Q1020 R08/CLRD70 NOSIG RMK QFE764/1019

VFR

42.8°F / 42.8°F

[More]
Wind 50º variable 020º to 080º 6kt
Visibility >10km
Weather -
Clouds Scattered Clouds 1600ft
Pressure 1020
Change No Significant change. Runway 08: Damp, 51-100% contamination with <1mm, friction coefficient 0.65.
Raw ULAA 170500Z 05003MPS 020V080 9999 SCT016 06/06 Q1020 R08/190065 NOSIG RMK QFE764/1019

MVFR

42.8°F / 41°F

[More]
Wind 50º variable 020º to 160º 4kt
Visibility >10km
Weather -
Clouds Broken Clouds 1100ft
Pressure 1020
Change No Significant change. Runway 08: Damp, 51-100% contamination with <1mm, friction coefficient 0.65.
Raw ULAA 170430Z 05002MPS 020V160 9999 BKN011 06/05 Q1020 R08/190065 NOSIG RMK QFE764/1019

MVFR

41°F / 41°F

[More]
Wind variable 2kt
Visibility >10km
Weather -
Clouds Broken Clouds 1200ft
Pressure 1020
Change No Significant change. Runway 08: Damp, 51-100% contamination with <1mm, friction coefficient 0.65.
Raw ULAA 170400Z VRB01MPS 9999 BKN012 05/05 Q1020 R08/190065 NOSIG RMK QFE764/1019

IFR

41°F / 41°F

[More]
Wind 10º 2kt
Visibility >10km
Weather -
Clouds Overcast 700ft
Pressure 1020
Change No Significant change. Runway 08: Damp, 51-100% contamination with <1mm, friction coefficient 0.65.
Raw ULAA 170330Z 01001MPS 9999 OVC007 05/05 Q1020 R08/190065 NOSIG RMK QFE764/1019

IFR

39.2°F / 39.2°F

[More]
Wind 10º variable 340º to 040º 4kt
Visibility >10km
Weather -
Clouds Overcast 800ft
Pressure 1020
Change No Significant change. Runway 08: Wet or puddles, 51-100% contamination with <1mm, friction coefficient 0.60.
Raw ULAA 170300Z 01002MPS 340V040 9999 OVC008 04/04 Q1020 R08/290060 NOSIG RMK QFE764/1018

MVFR

39.2°F / 39.2°F

[More]
Wind variable 2kt
Visibility >10km
Weather -
Clouds Overcast 1000ft
Pressure 1019
Change No Significant change. Runway 08: Wet or puddles, 51-100% contamination with <1mm, friction coefficient 0.60.
Raw ULAA 170230Z VRB01MPS 9999 OVC010 04/04 Q1019 R08/290060 NOSIG RMK QFE763/1018

MVFR

39.2°F / 39.2°F

[More]
Wind variable 2kt
Visibility >10km
Weather -
Clouds Broken Clouds 2600ft
Pressure 1019
Change No Significant change. Runway 08: Wet or puddles, 51-100% contamination with <1mm, friction coefficient 0.60.
Raw ULAA 170200Z VRB01MPS 9999 BKN026 04/04 Q1019 R08/290060 NOSIG RMK QFE763/1018

VFR

37.4°F / 37.4°F

[More]
Wind 40º 2kt
Visibility >10km
Weather -
Clouds Scattered Clouds 3300ft
Pressure 1019
Change No Significant change. Runway 08: Wet or puddles, 51-100% contamination with <1mm, friction coefficient 0.60.
Raw ULAA 170130Z 04001MPS 9999 SCT033 03/03 Q1019 R08/290060 NOSIG RMK QFE763/1018

VFR

35.6°F / 35.6°F

[More]
Wind 20º 2kt
Visibility >10km
Weather -
Clouds Scattered Clouds 3300ft
Pressure 1019
Change No Significant change. Runway 08: Wet or puddles, 51-100% contamination with <1mm, friction coefficient 0.60.
Raw ULAA 170100Z 02001MPS 9999 SCT033 02/02 Q1019 R08/290060 NOSIG RMK QFE763/1017

VFR

39.2°F / 37.4°F

[More]
Wind 20º 2kt
Visibility >10km
Weather -
Clouds Broken Clouds 3300ft
Pressure 1018
Change No Significant change. Runway 08: Wet or puddles, 51-100% contamination with <1mm, friction coefficient 0.60.
Raw ULAA 170030Z 02001MPS 9999 BKN033 04/03 Q1018 R08/290060 NOSIG RMK QFE763/1017

VFR

39.2°F / 39.2°F

[More]
Wind variable 2kt
Visibility >10km
Weather -
Clouds Broken Clouds 3100ft
Pressure 1018
Change No Significant change. Runway 08: Wet or puddles, 51-100% contamination with <1mm, friction coefficient 0.60.
Raw ULAA 170000Z VRB01MPS 9999 BKN031 04/04 Q1018 R08/290060 NOSIG RMK QFE763/1017

MVFR

39.2°F / 39.2°F

[More]
Wind 30º 2kt
Visibility >10km
Weather -
Clouds Broken Clouds 2800ft
Pressure 1018
Change No Significant change. Runway 08: Wet or puddles, 51-100% contamination with <1mm, friction coefficient 0.60.
Raw ULAA 162330Z 03001MPS 9999 BKN028 04/04 Q1018 R08/290060 NOSIG RMK QFE763/1017

MVFR

39.2°F / 39.2°F

[More]
Wind 40º 2kt
Visibility >10km
Weather -
Clouds Broken Clouds 2100ft
Pressure 1018
Change No Significant change. Runway 08: Wet or puddles, 51-100% contamination with <1mm, friction coefficient 0.60.
Raw ULAA 162300Z 04001MPS 9999 BKN021 04/04 Q1018 R08/290060 NOSIG RMK QFE762/1017

MVFR

39.2°F / 39.2°F

[More]
Wind 40º 4kt
Visibility >10km
Weather -
Clouds Broken Clouds 1100ft
Pressure 1018
Change No Significant change. Runway 08: Wet or puddles, 51-100% contamination with <1mm, friction coefficient 0.60.
Raw ULAA 162230Z 04002MPS 9999 BKN011 04/04 Q1018 R08/290060 NOSIG RMK QFE762/1016

TAF for 64.6°N 40.72°E (ULAA)

From till


From till Wind 40º 6kt. Gust 19kt. Visibility 10km or more. Broken Clouds 1600ft.
Temporarly from till Wind 10º 8kt. Gust 25kt. Visibility 6000m. Light Showers Rain . Few Clouds 700ft. Broken Clouds 1600ft.
Becoming from till Wind 360º 6kt. Gust 16kt. Visibility 10km or more. Broken Clouds 1600ft.

Raw: TAF ULAA 170800Z 1709/1809 04003G10MPS 9999 BKN016 TEMPO 1709/1718 01004G13MPS 6000 -SHRA FEW007 BKN016CB BECMG 1718/1720 36003G08MPS

Current satellite and rain images for 64.6°N 40.72°E

The location marker is placed on 64.6°N 40.72°E. [More]

The real-time satellite image combines visible light during daytime with infrared radiation during nighttime. At night, the image is not dark as infrared radiation can detect temperature differences. Unfortunately, low clouds and fog are difficult to distinguish from ground temperatures and thus can be almost invisible during the night. Meteosat satellite images for Europe are updated in real-time every 5 minutes. GOES-16/GOES-17 (North & South America) and Himawari (Asia) images update every 10 minutes.

Copyright 2021 EUMETSAT / meteoblue. / Copyright 2021 meteoblue

Radar and precipitation nowcast for 64.6°N 40.72°E

Drizzle
Light
Moderate
Heavy
Very Heavy
Hail

The location marker is placed on 64.6°N 40.72°E. This animation shows the precipitation radar for the last hour, as well as a 1h forecast. Drizzle or light snow fall might be invisible for the radar. Precipitation intensity is colour coded, ranging from light blue to orange.